Terminal Aerodrome Forecast
Issued by NWS Paducah, KY

Home | Current Version | Previous Version | Text Only | Print | Product List | Glossary On
Versions: 1 2 3 4 5 6 7 8 9 10 11 12 13 14 15 16 17 18 19 20
284
FTUS43 KPAH 232340
TAFPAH
TAF
KPAH 232340Z 2400/2424 VRB03KT P6SM VCSH OVC070
     FM240500 35005KT 5SM BR BKN025
     FM240800 35006KT 3SM BR OVC008
     FM241700 34010KT P6SM VCSH OVC012
     FM242000 34011KT P6SM VCSH BKN020
     FM242200 34010KT P6SM SCT020 BKN035=

USA.gov is the U.S. government's official web portal to all federal, state and local government web resources and services.